Terminal Aerodrome Forecast
Issued by NWS

Home | Current Version | Previous Version | Text Only | Print | Product List | Glossary On
Versions: 1 2 3 4 5 6 7 8 9 10 11 12 13 14 15 16 17 18 19 20
617
FTUS43 KDVN 241238 AAB
TAFBRL
TAF AMD
KBRL 241238Z 2413/2512 10003KT 3SM BR FEW004 SCT010
      TEMPO 2413/2414 1SM BR BKN004
     FM241400 13006KT P6SM FEW010 SCT050
     FM250600 15005KT P6SM FEW250=

USA.gov is the U.S. government's official web portal to all federal, state and local government web resources and services.